Kimberley, South Africa
Current Conditions -  °F | °C
As of 5:00 AM on Tuesday 27 Jan 2015 (Local Time) from FAKM Reporting Station
Clear Clear  
Wind Chill: 66°   Ceiling: Unl
Heat Index: 66°   Visibility: 6mi
Dew Point: 54°   Wind: 0mph
Humidity: 64%   Direction: NA
Pressure: 30.06"   Gusts: NA
Location:  28.75°S, 24.77°E
Report Text: FAKM 270300Z 00000KT CAVOK 19/12 Q1018
Loading
Personal Weather Stations






























Interactive Weather Map New forecast layout! Learn more

10-Day Weather Forecast

Advertisements
Track Severe Weather on mobile